createdAt,value
2022-08-12T00:02:03.486Z,99222.09
2022-08-12T00:04:52.933Z,99229.41
2022-08-12T00:07:39.151Z,99233.06
2022-08-12T00:10:25.684Z,99229.63
2022-08-12T00:13:13.014Z,99228.03
2022-08-12T00:16:02.639Z,99234.38
2022-08-12T00:18:48.825Z,99233.75
2022-08-12T00:21:37.912Z,99231.34
2022-08-12T00:24:25.993Z,99235.00
2022-08-12T00:27:12.599Z,99230.72
2022-08-12T00:29:59.100Z,99235.34
2022-08-12T00:32:54.359Z,99233.91
2022-08-12T00:35:42.911Z,99235.13
2022-08-12T00:38:30.567Z,99240.59
2022-08-12T00:41:17.363Z,99239.00
2022-08-12T00:43:46.149Z,99252.34
2022-08-12T00:46:31.342Z,99241.84
2022-08-12T00:48:59.952Z,99243.69
2022-08-12T00:51:48.775Z,99238.44
2022-08-12T00:54:17.286Z,99239.44
2022-08-12T00:56:49.151Z,99242.09
2022-08-12T00:59:17.471Z,99243.06
2022-08-12T01:02:02.338Z,99235.22
2022-08-12T01:04:54.121Z,99238.03
2022-08-12T01:07:45.184Z,99233.94
2022-08-12T01:10:33.043Z,99232.31
2022-08-12T01:13:07.554Z,99226.41
2022-08-12T01:15:54.457Z,99223.03
2022-08-12T01:18:24.213Z,99218.81
2022-08-12T01:21:26.969Z,99212.69
2022-08-12T01:24:29.942Z,99220.66
2022-08-12T01:26:59.435Z,99216.25
2022-08-12T01:29:33.010Z,99214.47
2022-08-12T01:32:05.521Z,99219.69
2022-08-12T01:34:38.921Z,99216.00
2022-08-12T01:37:09.467Z,99220.47
2022-08-12T01:40:33.474Z,99209.13
2022-08-12T01:42:51.102Z,99217.34
2022-08-12T01:45:24.577Z,99210.31
2022-08-12T01:48:05.339Z,99205.19
2022-08-12T01:50:36.947Z,99203.50
2022-08-12T01:53:12.394Z,99202.66
2022-08-12T01:55:45.309Z,99200.19
2022-08-12T01:58:57.374Z,99188.84
2022-08-12T02:01:30.703Z,99195.81
2022-08-12T02:04:31.576Z,99190.50
2022-08-12T02:08:05.075Z,99192.34
2022-08-12T02:11:08.404Z,99191.50
2022-08-12T02:14:06.496Z,99191.41
2022-08-12T02:16:45.435Z,99199.22
2022-08-12T02:19:25.923Z,99200.66
2022-08-12T02:22:20.579Z,99194.16
2022-08-12T02:24:50.671Z,99196.41
2022-08-12T02:27:19.733Z,99192.69
2022-08-12T02:29:47.699Z,99191.75
2022-08-12T02:32:15.232Z,99195.19
2022-08-12T02:34:44.717Z,99199.53
2022-08-12T02:37:15.462Z,99197.88
2022-08-12T02:39:49.591Z,99205.47
2022-08-12T02:42:20.722Z,99198.22
2022-08-12T02:44:53.271Z,99194.44
2022-08-12T02:47:58.201Z,99196.13
2022-08-12T02:50:17.906Z,99203.06
2022-08-12T02:52:45.353Z,99191.44
2022-08-12T02:55:28.253Z,99192.25
2022-08-12T02:58:06.733Z,99195.53
2022-08-12T03:00:38.065Z,99198.75
2022-08-12T03:03:06.087Z,99190.94
2022-08-12T03:05:38.540Z,99192.53
2022-08-12T03:08:31.585Z,99200.97
2022-08-12T03:11:12.205Z,99198.91
2022-08-12T03:13:46.467Z,99202.91
2022-08-12T03:16:14.884Z,99211.50
2022-08-12T03:18:46.234Z,99209.50
2022-08-12T03:21:16.867Z,99207.44
2022-08-12T03:23:46.495Z,99198.56
2022-08-12T03:26:14.728Z,99198.50
2022-08-12T03:28:51.937Z,99209.88
2022-08-12T03:31:22.605Z,99229.88
2022-08-12T03:34:01.314Z,99228.78
2022-08-12T03:36:35.405Z,99229.47
2022-08-12T03:39:18.715Z,99226.53
2022-08-12T03:42:18.097Z,99232.75
2022-08-12T03:45:20.173Z,99224.03
2022-08-12T03:48:13.384Z,99220.59
2022-08-12T03:51:06.719Z,99224.97
2022-08-12T03:53:53.443Z,99219.53
2022-08-12T03:56:39.235Z,99224.59
2022-08-12T03:59:26.915Z,99239.41
2022-08-12T04:01:58.157Z,99233.97
2022-08-12T04:04:27.373Z,99234.53
2022-08-12T04:06:54.378Z,99235.09
2022-08-12T04:09:22.832Z,99231.41
2022-08-12T04:12:09.141Z,99241.75
2022-08-12T04:14:36.335Z,99245.81
2022-08-12T04:17:04.219Z,99239.22
2022-08-12T04:19:31.438Z,99240.44
2022-08-12T04:22:03.025Z,99240.13
2022-08-12T04:24:35.705Z,99240.53
2022-08-12T04:27:05.777Z,99244.53
2022-08-12T04:30:21.225Z,99249.41
2022-08-12T04:32:21.427Z,99247.16
2022-08-12T04:34:49.654Z,99249.19
2022-08-12T04:37:16.750Z,99253.22
2022-08-12T04:39:45.971Z,99247.81
2022-08-12T04:42:13.753Z,99251.28
2022-08-12T04:44:42.516Z,99251.91
2022-08-12T04:47:15.240Z,99250.75
2022-08-12T04:49:46.533Z,99247.81
2022-08-12T04:52:14.746Z,99239.97
2022-08-12T04:54:44.027Z,99249.22
2022-08-12T04:57:10.947Z,99229.59
2022-08-12T04:59:46.947Z,99236.41
2022-08-12T05:02:21.635Z,99230.22
2022-08-12T05:05:00.489Z,99232.03
2022-08-12T05:07:28.714Z,99232.06
2022-08-12T05:10:02.048Z,99237.28
2022-08-12T05:12:41.307Z,99238.09
2022-08-12T05:15:19.770Z,99243.78
2022-08-12T05:17:56.082Z,99248.09
2022-08-12T05:20:26.177Z,99260.22
2022-08-12T05:23:13.016Z,99264.44
2022-08-12T05:25:43.455Z,99264.84
2022-08-12T05:28:11.345Z,99266.94
2022-08-12T05:30:38.259Z,99265.25
2022-08-12T05:33:06.874Z,99258.56
2022-08-12T05:35:42.907Z,99257.38
2022-08-12T05:38:30.222Z,99263.00
2022-08-12T05:40:57.173Z,99271.84
2022-08-12T05:43:24.872Z,99268.84
2022-08-12T05:45:51.915Z,99270.22
2022-08-12T05:48:19.424Z,99280.09
2022-08-12T05:50:47.782Z,99278.69
2022-08-12T05:53:15.019Z,99271.19
2022-08-12T05:55:41.960Z,99287.09
2022-08-12T05:58:09.114Z,99284.94
2022-08-12T06:00:37.272Z,99286.78
2022-08-12T06:03:06.233Z,99285.91
2022-08-12T06:05:43.071Z,99284.28
2022-08-12T06:08:23.210Z,99279.03
2022-08-12T06:10:50.769Z,99279.03
2022-08-12T06:13:27.873Z,99275.31
2022-08-12T06:16:07.541Z,99261.78
2022-08-12T06:18:34.695Z,99259.09
2022-08-12T06:21:02.390Z,99258.72
2022-08-12T06:23:30.333Z,99263.41
2022-08-12T06:25:58.500Z,99251.19
2022-08-12T06:28:26.223Z,99249.84
2022-08-12T06:31:22.073Z,99243.13
2022-08-12T06:34:00.382Z,99253.63
2022-08-12T06:36:33.543Z,99255.84
2022-08-12T06:39:01.510Z,99261.84
2022-08-12T06:42:05.118Z,99252.69
2022-08-12T06:44:34.171Z,99260.75
2022-08-12T06:47:01.107Z,99258.81
2022-08-12T06:49:33.575Z,99263.94
2022-08-12T06:52:00.638Z,99267.38
2022-08-12T06:54:31.768Z,99264.38
2022-08-12T06:57:04.816Z,99273.91
2022-08-12T06:59:41.487Z,99272.75
2022-08-12T07:02:08.744Z,99268.78
2022-08-12T07:04:39.190Z,99265.03
2022-08-12T07:07:09.484Z,99269.16
2022-08-12T07:10:06.652Z,99259.97
2022-08-12T07:12:27.918Z,99259.03
2022-08-12T07:14:57.359Z,99259.59
2022-08-12T07:17:24.608Z,99257.06
2022-08-12T07:19:52.123Z,99252.06
2022-08-12T07:22:19.295Z,99248.88
2022-08-12T07:25:06.226Z,99250.34
2022-08-12T07:27:40.975Z,99252.31
2022-08-12T07:30:10.010Z,99255.28
2022-08-12T07:32:37.202Z,99264.91
2022-08-12T07:35:04.464Z,99274.56
2022-08-12T07:37:31.581Z,99273.13
2022-08-12T07:39:59.612Z,99268.72
2022-08-12T07:42:27.235Z,99273.91
2022-08-12T07:44:54.691Z,99273.16
2022-08-12T07:47:21.739Z,99282.34
2022-08-12T07:50:04.147Z,99275.44
2022-08-12T07:52:34.933Z,99276.63
2022-08-12T07:55:02.764Z,99280.69
2022-08-12T07:57:32.623Z,99282.22
2022-08-12T08:00:04.641Z,99281.16
2022-08-12T08:02:37.799Z,99286.31
2022-08-12T08:05:06.099Z,99281.25
2022-08-12T08:07:33.141Z,99282.31
2022-08-12T08:10:02.344Z,99303.38
2022-08-12T08:12:48.784Z,99307.53
2022-08-12T08:15:16.759Z,99300.00
2022-08-12T08:18:11.099Z,99300.19
2022-08-12T08:20:41.792Z,99301.88
2022-08-12T08:23:17.379Z,99313.41
2022-08-12T08:25:47.156Z,99313.34
2022-08-12T08:28:18.899Z,99307.84
2022-08-12T08:30:47.918Z,99304.59
2022-08-12T08:33:24.688Z,99303.31
2022-08-12T08:36:07.672Z,99302.97
2022-08-12T08:38:57.792Z,99307.00
2022-08-12T08:42:15.750Z,99312.22
2022-08-12T08:44:33.272Z,99305.91
2022-08-12T08:47:01.356Z,99316.31
2022-08-12T08:49:28.198Z,99312.94
2022-08-12T08:51:55.407Z,99301.03
2022-08-12T08:54:23.838Z,99293.81
2022-08-12T08:56:51.175Z,99303.16
2022-08-12T08:59:19.716Z,99297.19
2022-08-12T09:01:48.161Z,99294.09
2022-08-12T09:05:09.310Z,99276.50
2022-08-12T09:07:16.708Z,99278.22
2022-08-12T09:12:55.079Z,99273.56
2022-08-12T09:15:35.329Z,99277.06
2022-08-12T09:18:09.026Z,99270.28
2022-08-12T09:20:38.382Z,99275.66
2022-08-12T09:26:04.461Z,99259.41
2022-08-12T09:28:37.301Z,99256.03
2022-08-12T09:32:03.696Z,99264.22
2022-08-12T09:34:25.828Z,99253.75
2022-08-12T09:36:59.930Z,99248.94
2022-08-12T09:40:03.555Z,99251.31
2022-08-12T09:42:43.598Z,99248.34
2022-08-12T09:45:24.154Z,99241.06
2022-08-12T09:48:09.875Z,99242.13
2022-08-12T09:50:51.939Z,99228.00
2022-08-12T09:53:29.220Z,99232.06
2022-08-12T09:56:56.803Z,99230.53
2022-08-12T09:58:59.734Z,99219.72
2022-08-12T10:01:35.194Z,99221.91
2022-08-12T10:04:19.636Z,99228.34
2022-08-12T10:06:54.087Z,99227.50
2022-08-12T10:09:23.158Z,99227.28
2022-08-12T10:12:14.404Z,99225.34
2022-08-12T10:14:58.041Z,99215.84
2022-08-12T10:17:25.442Z,99205.75
2022-08-12T10:19:53.027Z,99208.41
2022-08-12T10:22:49.270Z,99209.72
2022-08-12T10:26:34.759Z,99209.72
2022-08-12T10:28:38.288Z,99199.47
2022-08-12T10:31:06.025Z,99185.91
2022-08-12T10:33:55.148Z,99178.91
2022-08-12T10:36:36.372Z,99173.16
2022-08-12T10:40:00.034Z,99159.47
2022-08-12T10:42:15.979Z,99161.97
2022-08-12T10:44:50.968Z,99151.53
2022-08-12T10:47:26.578Z,99158.50
2022-08-12T10:50:28.486Z,99164.47
2022-08-12T10:52:57.083Z,99166.19
2022-08-12T10:55:24.479Z,99165.88
2022-08-12T10:58:15.401Z,99167.53
2022-08-12T11:00:55.321Z,99171.09
2022-08-12T11:04:35.806Z,99176.66
2022-08-12T11:07:07.468Z,99176.53
2022-08-12T11:09:02.187Z,99179.53
2022-08-12T11:12:36.688Z,99182.34
2022-08-12T11:14:49.261Z,99190.13
2022-08-12T11:17:53.313Z,99184.22
2022-08-12T11:20:05.394Z,99197.56
2022-08-12T11:22:32.572Z,99197.91
2022-08-12T11:24:59.489Z,99197.69
2022-08-12T11:27:26.335Z,99191.16
2022-08-12T11:30:03.715Z,99179.78
2022-08-12T11:32:38.461Z,99179.47
2022-08-12T11:35:07.111Z,99177.59
2022-08-12T11:37:36.426Z,99171.16
2022-08-12T11:40:23.375Z,99165.75
2022-08-12T11:42:50.327Z,99164.34
2022-08-12T11:45:19.720Z,99163.25
2022-08-12T11:47:46.921Z,99162.31
2022-08-12T11:50:19.297Z,99166.25
2022-08-12T11:52:56.583Z,99162.75
2022-08-12T11:55:25.370Z,99162.44
2022-08-12T11:58:14.643Z,99161.47
2022-08-12T12:03:44.247Z,99151.38
2022-08-12T12:06:20.808Z,99141.53
2022-08-12T12:08:52.803Z,99144.22
2022-08-12T12:11:22.873Z,99143.78
2022-08-12T12:14:07.301Z,99147.44
2022-08-12T12:16:40.042Z,99147.16
2022-08-12T12:19:10.231Z,99143.06
2022-08-12T12:21:47.989Z,99138.97
2022-08-12T12:24:20.881Z,99140.13
2022-08-12T12:27:00.411Z,99139.84
2022-08-12T12:30:18.101Z,99144.69
2022-08-12T12:32:17.317Z,99141.78
2022-08-12T12:35:14.166Z,99142.34
2022-08-12T12:38:03.739Z,99138.78
2022-08-12T12:40:22.004Z,99142.06
2022-08-12T12:43:03.076Z,99143.31
2022-08-12T12:45:35.705Z,99140.91
2022-08-12T12:48:08.410Z,99134.06
2022-08-12T12:50:51.499Z,99137.34
2022-08-12T12:54:06.490Z,99127.97
2022-08-12T12:56:21.006Z,99126.31
2022-08-12T12:59:01.064Z,99122.00
2022-08-12T13:01:31.878Z,99119.56
2022-08-12T13:04:01.937Z,99115.84
2022-08-12T13:06:31.767Z,99112.56
2022-08-12T13:09:03.887Z,99115.81
2022-08-12T13:11:32.727Z,99109.94
2022-08-12T13:14:12.996Z,99101.47
2022-08-12T13:16:56.400Z,99096.16
2022-08-12T13:19:36.653Z,99095.53
2022-08-12T13:22:21.461Z,99098.56
2022-08-12T13:24:56.830Z,99097.28
2022-08-12T13:27:48.471Z,99091.47
2022-08-12T13:30:17.822Z,99087.44
2022-08-12T13:32:57.635Z,99084.63
2022-08-12T13:36:03.334Z,99080.13
2022-08-12T13:38:26.737Z,99081.34
2022-08-12T13:41:11.085Z,99075.06
2022-08-12T13:43:40.843Z,99081.03
2022-08-12T13:46:12.188Z,99072.94
2022-08-12T13:48:45.212Z,99080.63
2022-08-12T13:51:14.013Z,99073.88
2022-08-12T13:53:57.564Z,99077.44
2022-08-12T13:56:34.513Z,99074.78
2022-08-12T13:59:08.018Z,99071.25
2022-08-12T14:01:40.487Z,99070.94
2022-08-12T14:04:11.584Z,99066.16
2022-08-12T14:06:44.793Z,99062.28
2022-08-12T14:09:15.679Z,99066.38
2022-08-12T14:11:48.473Z,99060.59
2022-08-12T14:14:31.333Z,99071.09
2022-08-12T14:17:05.545Z,99065.91
2022-08-12T14:19:35.690Z,99069.13
2022-08-12T14:22:06.829Z,99064.19
2022-08-12T14:24:40.739Z,99059.78
2022-08-12T14:27:11.049Z,99057.91
2022-08-12T14:30:04.483Z,99054.31
2022-08-12T14:32:35.663Z,99060.47
2022-08-12T14:35:09.251Z,99051.69
2022-08-12T14:37:56.044Z,99047.69
2022-08-12T14:40:27.500Z,99053.63
2022-08-12T14:42:57.133Z,99054.81
2022-08-12T14:45:44.217Z,99044.81
2022-08-12T14:48:15.284Z,99029.44
2022-08-12T14:51:03.216Z,99039.41
2022-08-12T14:59:55.689Z,99033.16
2022-08-12T15:02:21.182Z,99032.63
2022-08-12T15:04:56.129Z,99036.69
2022-08-12T15:07:34.469Z,99036.38
2022-08-12T15:10:10.918Z,99026.56
2022-08-12T15:12:40.708Z,99026.22
2022-08-12T15:15:09.065Z,99034.81
2022-08-12T15:17:38.792Z,99022.59
2022-08-12T15:20:31.634Z,99035.88
2022-08-12T15:22:58.165Z,99029.31
2022-08-12T15:25:26.227Z,99027.41
2022-08-12T15:28:05.485Z,99022.66
2022-08-12T15:30:40.584Z,99022.53
2022-08-12T15:33:12.894Z,99022.91
2022-08-12T15:35:51.981Z,99015.84
2022-08-12T15:38:21.235Z,99019.72
2022-08-12T15:40:51.356Z,99012.59
2022-08-12T15:43:51.993Z,99014.63
2022-08-12T15:46:07.637Z,99012.72
2022-08-12T15:48:46.330Z,99005.47
2022-08-12T15:51:58.633Z,99009.81
2022-08-12T15:54:34.530Z,98998.66
2022-08-12T15:57:07.812Z,99011.56
2022-08-12T15:59:59.909Z,99009.63
2022-08-12T16:02:29.755Z,99012.63
2022-08-12T16:04:57.297Z,99014.22
2022-08-12T16:07:26.017Z,99018.34
2022-08-12T16:10:06.674Z,99022.72
2022-08-12T16:12:43.604Z,99015.53
2022-08-12T16:15:29.388Z,99017.44
2022-08-12T16:18:18.093Z,99004.91
2022-08-12T16:20:47.360Z,99000.09
2022-08-12T16:23:36.158Z,99004.31
2022-08-12T16:26:14.437Z,99007.34
2022-08-12T16:28:47.606Z,98999.63
2022-08-12T16:31:23.099Z,98996.41
2022-08-12T16:33:58.794Z,99005.22
2022-08-12T16:36:29.622Z,98994.91
2022-08-12T16:39:01.642Z,98993.34
2022-08-12T16:41:39.589Z,98979.38
2022-08-12T16:44:08.888Z,98987.03
2022-08-12T16:46:38.977Z,98985.25
2022-08-12T16:49:13.473Z,98994.06
2022-08-12T16:51:45.947Z,98987.97
2022-08-12T16:54:16.575Z,98989.03
2022-08-12T16:56:54.960Z,98982.97
2022-08-12T16:59:26.439Z,98984.03
2022-08-12T17:02:30.096Z,98982.47
2022-08-12T17:05:03.114Z,98977.13
2022-08-12T17:07:37.175Z,98978.41
2022-08-12T17:10:09.499Z,98975.88
2022-08-12T17:12:39.356Z,98973.91
2022-08-12T17:15:50.772Z,98970.91
2022-08-12T17:18:39.308Z,98971.78
2022-08-12T17:20:47.311Z,98964.75
2022-08-12T17:23:19.637Z,98958.91
2022-08-12T17:25:52.946Z,98956.13
2022-08-12T17:28:22.726Z,98958.34
2022-08-12T17:30:59.800Z,98956.25
2022-08-12T17:33:27.837Z,98956.22
2022-08-12T17:36:01.411Z,98954.38
2022-08-12T17:38:29.558Z,98956.06
2022-08-12T17:40:57.746Z,98947.25
2022-08-12T17:43:57.348Z,98938.91
2022-08-12T17:46:13.363Z,98943.28
2022-08-12T17:48:55.362Z,98945.94
2022-08-12T17:51:24.657Z,98941.66
2022-08-12T17:54:06.180Z,98942.63
2022-08-12T17:56:39.361Z,98948.91
2022-08-12T17:59:07.382Z,98944.63
2022-08-12T18:01:35.935Z,98950.78
2022-08-12T18:04:20.951Z,98955.06
2022-08-12T18:06:51.402Z,98961.09
2022-08-12T18:09:21.357Z,98957.09
2022-08-12T18:12:08.195Z,98953.97
2022-08-12T18:14:40.985Z,98961.94
2022-08-12T18:17:10.234Z,98960.06
2022-08-12T18:20:06.205Z,98953.88
2022-08-12T18:22:30.825Z,98962.69
2022-08-12T18:25:06.346Z,98962.50
2022-08-12T18:27:44.982Z,98957.38
2022-08-12T18:30:20.390Z,98970.88
2022-08-12T18:33:03.462Z,98970.44
2022-08-12T18:35:46.869Z,98960.00
2022-08-12T18:38:24.688Z,98963.41
2022-08-12T18:41:21.917Z,98953.31
2022-08-12T18:44:02.488Z,98956.75
2022-08-12T18:46:54.374Z,98949.94
2022-08-12T18:49:39.198Z,98961.50
2022-08-12T18:52:11.730Z,98959.22
2022-08-12T18:54:49.505Z,98957.41
2022-08-12T18:58:06.199Z,98960.69
2022-08-12T19:00:18.916Z,98963.72
2022-08-12T19:02:51.197Z,98962.25
2022-08-12T19:05:17.945Z,98957.66
2022-08-12T19:08:00.544Z,98956.34
2022-08-12T19:10:32.059Z,98961.69
2022-08-12T19:13:23.434Z,98968.59
2022-08-12T19:15:54.454Z,98977.94
2022-08-12T19:18:24.472Z,98978.81
2022-08-12T19:20:56.852Z,98982.94
2022-08-12T19:23:33.754Z,98983.63
2022-08-12T19:26:03.617Z,98980.13
2022-08-12T19:28:35.566Z,98979.63
2022-08-12T19:31:44.925Z,98980.47
2022-08-12T19:35:24.150Z,98984.88
2022-08-12T19:37:38.528Z,98988.28
2022-08-12T19:40:31.600Z,98990.78
2022-08-12T19:43:13.280Z,98988.84
2022-08-12T19:45:51.586Z,98992.97
2022-08-12T19:48:21.545Z,98983.84
2022-08-12T19:50:52.206Z,98991.78
2022-08-12T19:53:22.873Z,98984.22
2022-08-12T19:55:54.654Z,98988.72
2022-08-12T19:58:23.831Z,98987.63
2022-08-12T20:00:54.328Z,98986.41
2022-08-12T20:03:37.937Z,98989.66
2022-08-12T20:06:13.705Z,98990.53
2022-08-12T20:08:49.154Z,98982.25
2022-08-12T20:12:14.177Z,98988.31
2022-08-12T20:14:18.081Z,98969.59
2022-08-12T20:17:01.782Z,98966.06
2022-08-12T20:20:16.379Z,98961.56
2022-08-12T20:22:30.000Z,98964.34
2022-08-12T20:25:01.661Z,98960.94
2022-08-12T20:28:03.045Z,98959.16
2022-08-12T20:30:20.666Z,98964.50
2022-08-12T20:33:05.404Z,98960.00
2022-08-12T20:36:06.900Z,98954.50
2022-08-12T20:38:26.760Z,98962.41
2022-08-12T20:40:55.691Z,98955.22
2022-08-12T20:43:28.252Z,98958.78
2022-08-12T20:45:58.920Z,98952.44
2022-08-12T20:48:28.604Z,98959.38
2022-08-12T20:51:04.335Z,98953.06
2022-08-12T20:53:53.816Z,98950.25
2022-08-12T20:56:30.224Z,98951.97
2022-08-12T20:59:01.099Z,98949.28
2022-08-12T21:01:46.700Z,98949.28
2022-08-12T21:04:36.157Z,98959.16
2022-08-12T21:07:09.051Z,98944.16
2022-08-12T21:09:44.620Z,98945.16
2022-08-12T21:12:31.014Z,98941.72
2022-08-12T21:15:22.858Z,98943.69
2022-08-12T21:18:11.625Z,98948.19
2022-08-12T21:20:53.217Z,98938.44
2022-08-12T21:23:21.777Z,98937.41
2022-08-12T21:25:51.732Z,98945.06
2022-08-12T21:28:20.841Z,98943.47
2022-08-12T21:31:11.779Z,98939.75
2022-08-12T21:33:58.534Z,98942.88
2022-08-12T21:36:34.479Z,98945.28
2022-08-12T21:39:19.120Z,98940.31
2022-08-12T21:41:54.178Z,98933.28
2022-08-12T21:45:46.019Z,98936.69
2022-08-12T21:47:20.776Z,98939.59
2022-08-12T21:50:04.263Z,98938.63
2022-08-12T21:52:41.030Z,98934.97
2022-08-12T21:55:18.537Z,98936.69
2022-08-12T21:57:54.449Z,98936.53
2022-08-12T22:00:35.266Z,98935.81
2022-08-12T22:04:11.145Z,98934.38
2022-08-12T22:06:30.519Z,98936.19
2022-08-12T22:09:16.332Z,98929.16
2022-08-12T22:11:56.284Z,98925.50
2022-08-12T22:14:28.052Z,98928.44
2022-08-12T22:16:56.563Z,98930.25
2022-08-12T22:19:24.471Z,98930.25
2022-08-12T22:21:58.864Z,98928.53
2022-08-12T22:24:31.173Z,98931.38
2022-08-12T22:27:08.269Z,98931.38
2022-08-12T22:30:05.586Z,98926.25
2022-08-12T22:32:33.963Z,98927.81
2022-08-12T22:35:22.326Z,98925.28
2022-08-12T22:37:53.638Z,98917.66
2022-08-12T22:40:23.810Z,98924.78
2022-08-12T22:43:15.263Z,98916.78
2022-08-12T22:46:01.578Z,98912.41
2022-08-12T22:48:28.589Z,98913.41
2022-08-12T22:50:59.405Z,98904.50
2022-08-12T22:53:36.524Z,98907.19
2022-08-12T22:56:08.048Z,98901.84
2022-08-12T22:58:40.390Z,98909.00
2022-08-12T23:01:08.082Z,98903.66
2022-08-12T23:03:47.158Z,98897.34
2022-08-12T23:06:16.908Z,98898.06
2022-08-12T23:08:43.787Z,98893.31
2022-08-12T23:11:10.676Z,98895.25
2022-08-12T23:13:54.666Z,98888.97
2022-08-12T23:16:31.580Z,98886.50
2022-08-12T23:19:09.681Z,98882.16
2022-08-12T23:22:04.942Z,98879.59
2022-08-12T23:24:56.260Z,98880.59
2022-08-12T23:28:05.533Z,98884.50
2022-08-12T23:30:52.655Z,98886.31
2022-08-12T23:33:21.600Z,98880.97
2022-08-12T23:36:06.856Z,98874.91
2022-08-12T23:38:35.424Z,98865.88
2022-08-12T23:41:05.995Z,98863.22
2022-08-12T23:43:39.997Z,98865.88
2022-08-12T23:46:19.257Z,98857.28
2022-08-12T23:48:51.620Z,98852.19
2022-08-12T23:51:24.649Z,98851.22
2022-08-12T23:54:00.348Z,98849.50
2022-08-12T23:56:29.316Z,98846.84
2022-08-12T23:58:57.436Z,98845.16
